createdAt,value
2019-03-30T00:00:11.196Z,1013.93
2019-03-30T00:01:11.149Z,1013.92
2019-03-30T00:02:11.094Z,1013.90
2019-03-30T00:03:11.061Z,1013.91
2019-03-30T00:04:10.984Z,1013.90
2019-03-30T00:05:10.937Z,1013.88
2019-03-30T00:06:10.879Z,1013.87
2019-03-30T00:07:10.832Z,1013.89
2019-03-30T00:08:10.793Z,1013.84
2019-03-30T00:09:10.718Z,1013.83
2019-03-30T00:10:10.662Z,1013.85
2019-03-30T00:11:10.618Z,1013.81
2019-03-30T00:12:10.563Z,1013.83
2019-03-30T00:13:10.536Z,1013.81
2019-03-30T00:14:10.447Z,1013.81
2019-03-30T00:15:10.406Z,1013.81
2019-03-30T00:16:10.341Z,1013.79
2019-03-30T00:17:10.295Z,1013.76
2019-03-30T00:18:10.267Z,1013.76
2019-03-30T00:19:10.191Z,1013.77
2019-03-30T00:20:10.131Z,1013.77
2019-03-30T00:21:10.084Z,1013.74
2019-03-30T00:22:10.028Z,1013.73
2019-03-30T00:23:09.993Z,1013.73
2019-03-30T00:24:09.922Z,1013.71
2019-03-30T00:25:09.866Z,1013.72
2019-03-30T00:26:09.815Z,1013.70
2019-03-30T00:27:09.770Z,1013.73
2019-03-30T00:28:09.734Z,1013.70
2019-03-30T00:29:09.661Z,1013.73
2019-03-30T00:30:09.606Z,1013.69
2019-03-30T00:31:09.547Z,1013.74
2019-03-30T00:32:09.496Z,1013.75
2019-03-30T00:33:09.463Z,1013.73
2019-03-30T00:34:09.392Z,1013.70
2019-03-30T00:35:09.400Z,1013.69
2019-03-30T00:36:09.281Z,1013.71
2019-03-30T00:37:09.230Z,1013.71
2019-03-30T00:38:09.202Z,1013.71
2019-03-30T00:39:09.126Z,1013.74
2019-03-30T00:40:09.071Z,1013.74
2019-03-30T00:41:09.016Z,1013.69
2019-03-30T00:42:08.965Z,1013.72
2019-03-30T00:43:08.930Z,1013.71
2019-03-30T00:44:08.855Z,1013.73
2019-03-30T00:45:08.807Z,1013.75
2019-03-30T00:46:08.747Z,1013.72
2019-03-30T00:47:08.695Z,1013.73
2019-03-30T00:48:08.664Z,1013.69
2019-03-30T00:49:08.589Z,1013.70
2019-03-30T00:50:08.534Z,1013.72
2019-03-30T00:51:08.492Z,1013.70
2019-03-30T00:52:08.423Z,1013.69
2019-03-30T00:53:08.399Z,1013.67
2019-03-30T00:54:08.322Z,1013.68
2019-03-30T00:55:08.268Z,1013.73
2019-03-30T00:56:08.218Z,1013.68
2019-03-30T00:57:08.154Z,1013.67
2019-03-30T00:58:08.142Z,1013.69
2019-03-30T00:59:08.051Z,1013.70
2019-03-30T01:00:07.996Z,1013.68
2019-03-30T01:01:07.945Z,1013.70
2019-03-30T01:02:07.897Z,1013.71
2019-03-30T01:03:07.834Z,1013.72
2019-03-30T01:04:07.802Z,1013.73
2019-03-30T01:05:07.725Z,1013.64
2019-03-30T01:06:07.684Z,1013.69
2019-03-30T01:07:07.623Z,1013.67
2019-03-30T01:08:07.564Z,1013.63
2019-03-30T01:09:07.537Z,1013.63
2019-03-30T01:10:07.466Z,1013.61
2019-03-30T01:11:07.411Z,1013.60
2019-03-30T01:12:07.359Z,1013.64
2019-03-30T01:13:07.295Z,1013.61
2019-03-30T01:14:07.273Z,1013.61
2019-03-30T01:15:07.193Z,1013.61
2019-03-30T01:16:07.141Z,1013.59
2019-03-30T01:17:07.081Z,1013.55
2019-03-30T01:18:07.034Z,1013.54
2019-03-30T01:19:07.007Z,1013.52
2019-03-30T01:20:06.928Z,1013.56
2019-03-30T01:21:06.869Z,1013.57
2019-03-30T01:22:06.816Z,1013.57
2019-03-30T01:23:06.754Z,1013.59
2019-03-30T01:24:06.731Z,1013.53
2019-03-30T01:25:06.663Z,1013.53
2019-03-30T01:26:06.607Z,1013.51
2019-03-30T01:27:06.548Z,1013.51
2019-03-30T01:28:06.495Z,1013.48
2019-03-30T01:29:06.465Z,1013.44
2019-03-30T01:30:06.392Z,1013.46
2019-03-30T01:31:06.334Z,1013.45
2019-03-30T01:32:06.280Z,1013.43
2019-03-30T01:33:06.223Z,1013.45
2019-03-30T01:34:06.195Z,1013.46
2019-03-30T01:35:06.149Z,1013.38
2019-03-30T01:36:06.061Z,1013.39
2019-03-30T01:37:06.011Z,1013.35
2019-03-30T01:38:05.955Z,1013.35
2019-03-30T01:39:05.927Z,1013.35
2019-03-30T01:40:05.848Z,1013.36
2019-03-30T01:41:05.792Z,1013.33
2019-03-30T01:42:05.744Z,1013.34
2019-03-30T01:43:05.688Z,1013.32
2019-03-30T01:44:05.653Z,1013.32
2019-03-30T01:45:05.580Z,1013.32
2019-03-30T01:46:05.524Z,1013.28
2019-03-30T01:47:05.473Z,1013.33
2019-03-30T01:48:05.417Z,1013.31
2019-03-30T01:49:05.380Z,1013.29
2019-03-30T01:50:16.495Z,1013.29
2019-03-30T01:51:05.257Z,1013.29
2019-03-30T01:52:05.204Z,1013.28
2019-03-30T01:53:05.147Z,1013.31
2019-03-30T01:54:05.115Z,1013.28
2019-03-30T01:55:05.042Z,1013.29
2019-03-30T01:56:04.986Z,1013.25
2019-03-30T01:57:04.929Z,1013.26
2019-03-30T01:58:04.874Z,1013.25
2019-03-30T01:59:04.846Z,1013.23
2019-03-30T02:00:04.771Z,1013.22
2019-03-30T02:01:04.714Z,1013.20
2019-03-30T02:02:04.663Z,1013.20
2019-03-30T02:03:04.609Z,1013.17
2019-03-30T02:04:04.578Z,1013.16
2019-03-30T02:05:04.514Z,1013.17
2019-03-30T02:06:04.448Z,1013.17
2019-03-30T02:07:04.397Z,1013.14
2019-03-30T02:08:04.340Z,1013.15
2019-03-30T02:09:04.312Z,1013.16
2019-03-30T02:10:04.235Z,1013.10
2019-03-30T02:11:04.179Z,1013.11
2019-03-30T02:12:04.115Z,1013.07
2019-03-30T02:13:04.072Z,1013.06
2019-03-30T02:14:04.033Z,1013.12
2019-03-30T02:15:03.952Z,1013.11
2019-03-30T02:16:03.909Z,1013.08
2019-03-30T02:17:03.849Z,1013.06
2019-03-30T02:18:03.799Z,1013.09
2019-03-30T02:19:03.765Z,1013.09
2019-03-30T02:20:03.692Z,1013.08
2019-03-30T02:21:03.637Z,1013.05
2019-03-30T02:22:03.583Z,1013.04
2019-03-30T02:23:03.521Z,1013.06
2019-03-30T02:24:03.500Z,1013.04
2019-03-30T02:25:03.417Z,1013.05
2019-03-30T02:26:03.359Z,1013.01
2019-03-30T02:27:03.314Z,1013.05
2019-03-30T02:28:06.635Z,1013.02
2019-03-30T02:29:03.236Z,1012.99
2019-03-30T02:30:03.151Z,1012.98
2019-03-30T02:31:03.110Z,1012.96
2019-03-30T02:32:03.052Z,1012.96
2019-03-30T02:33:03.007Z,1012.96
2019-03-30T02:34:02.968Z,1012.97
2019-03-30T02:35:02.878Z,1012.98
2019-03-30T02:36:02.827Z,1012.97
2019-03-30T02:37:02.773Z,1012.92
2019-03-30T02:38:02.723Z,1012.99
2019-03-30T02:39:02.684Z,1012.93
2019-03-30T02:40:02.607Z,1012.97
2019-03-30T02:41:02.655Z,1012.93
2019-03-30T02:42:02.501Z,1012.94
2019-03-30T02:43:02.449Z,1012.88
2019-03-30T02:44:02.403Z,1012.86
2019-03-30T02:45:02.363Z,1012.87
2019-03-30T02:46:02.289Z,1012.87
2019-03-30T02:47:02.229Z,1012.88
2019-03-30T02:48:02.185Z,1012.88
2019-03-30T02:49:02.118Z,1012.83
2019-03-30T02:50:02.092Z,1012.84
2019-03-30T02:51:02.007Z,1012.85
2019-03-30T02:52:01.961Z,1012.82
2019-03-30T02:53:01.906Z,1012.74
2019-03-30T02:54:01.853Z,1012.77
2019-03-30T02:55:01.853Z,1012.76
2019-03-30T02:56:01.784Z,1012.78
2019-03-30T02:57:01.688Z,1012.76
2019-03-30T02:58:01.639Z,1012.78
2019-03-30T02:59:01.581Z,1012.77
2019-03-30T03:00:01.550Z,1012.79
2019-03-30T03:01:01.475Z,1012.77
2019-03-30T03:02:01.426Z,1012.73
2019-03-30T03:03:01.369Z,1012.71
2019-03-30T03:04:01.308Z,1012.72
2019-03-30T03:05:01.278Z,1012.70
2019-03-30T03:06:01.201Z,1012.72
2019-03-30T03:07:01.145Z,1012.75
2019-03-30T03:08:01.087Z,1012.76
2019-03-30T03:09:01.040Z,1012.72
2019-03-30T03:10:01.008Z,1012.73
2019-03-30T03:11:00.928Z,1012.68
2019-03-30T03:12:00.877Z,1012.63
2019-03-30T03:13:00.826Z,1012.65
2019-03-30T03:14:00.776Z,1012.65
2019-03-30T03:15:00.734Z,1012.66
2019-03-30T03:16:00.656Z,1012.63
2019-03-30T03:17:00.604Z,1012.64
2019-03-30T03:18:00.552Z,1012.62
2019-03-30T03:19:00.496Z,1012.59
2019-03-30T03:20:00.497Z,1012.58
2019-03-30T03:21:07.850Z,1012.60
2019-03-30T03:22:00.332Z,1012.61
2019-03-30T03:23:00.279Z,1012.55
2019-03-30T03:24:00.225Z,1012.59
2019-03-30T03:25:00.539Z,1012.55
2019-03-30T03:26:00.110Z,1012.52
2019-03-30T03:27:00.058Z,1012.52
2019-03-30T03:28:00.008Z,1012.51
2019-03-30T03:28:59.952Z,1012.49
2019-03-30T03:29:59.949Z,1012.47
2019-03-30T03:30:59.849Z,1012.49
2019-03-30T03:31:59.789Z,1012.47
2019-03-30T03:32:59.742Z,1012.44
2019-03-30T03:33:59.679Z,1012.44
2019-03-30T03:34:59.628Z,1012.43
2019-03-30T03:35:59.592Z,1012.43
2019-03-30T03:36:59.525Z,1012.38
2019-03-30T03:37:59.461Z,1012.39
2019-03-30T03:38:59.400Z,1012.37
2019-03-30T03:39:59.363Z,1012.37
2019-03-30T03:40:59.318Z,1012.37
2019-03-30T03:41:59.244Z,1012.35
2019-03-30T03:42:59.187Z,1012.33
2019-03-30T03:43:59.136Z,1012.31
2019-03-30T03:44:59.107Z,1012.32
2019-03-30T03:45:59.055Z,1012.33
2019-03-30T03:46:59.064Z,1012.32
2019-03-30T03:47:58.922Z,1012.28
2019-03-30T03:48:58.869Z,1012.27
2019-03-30T03:49:58.823Z,1012.27
2019-03-30T03:50:58.920Z,1012.22
2019-03-30T03:51:58.703Z,1012.24
2019-03-30T03:52:58.646Z,1012.24
2019-03-30T03:53:58.588Z,1012.23
2019-03-30T03:54:58.535Z,1012.22
2019-03-30T03:55:58.504Z,1012.21
2019-03-30T03:56:58.424Z,1012.20
2019-03-30T03:57:58.368Z,1012.19
2019-03-30T03:58:58.319Z,1012.18
2019-03-30T03:59:58.262Z,1012.17
2019-03-30T04:00:58.231Z,1012.15
2019-03-30T04:01:58.155Z,1012.14
2019-03-30T04:02:58.092Z,1012.17
2019-03-30T04:03:58.044Z,1012.13
2019-03-30T04:04:57.990Z,1012.13
2019-03-30T04:05:57.954Z,1012.11
2019-03-30T04:06:57.889Z,1012.13
2019-03-30T04:07:57.826Z,1012.09
2019-03-30T04:08:57.780Z,1012.08
2019-03-30T04:09:57.721Z,1012.13
2019-03-30T04:10:57.680Z,1012.09
2019-03-30T04:11:57.612Z,1012.10
2019-03-30T04:12:57.551Z,1012.05
2019-03-30T04:13:57.504Z,1012.04
2019-03-30T04:14:57.446Z,1012.05
2019-03-30T04:15:57.408Z,1012.03
2019-03-30T04:16:57.331Z,1012.03
2019-03-30T04:17:57.281Z,1012.05
2019-03-30T04:18:57.227Z,1012.02
2019-03-30T04:19:57.267Z,1012.02
2019-03-30T04:20:57.138Z,1011.97
2019-03-30T04:21:57.063Z,1011.98
2019-03-30T04:22:57.004Z,1011.96
2019-03-30T04:23:56.949Z,1011.91
2019-03-30T04:24:56.897Z,1011.95
2019-03-30T04:25:56.880Z,1011.95
2019-03-30T04:26:56.782Z,1011.92
2019-03-30T04:27:56.731Z,1011.92
2019-03-30T04:28:56.672Z,1011.88
2019-03-30T04:29:56.624Z,1011.86
2019-03-30T04:30:56.592Z,1011.86
2019-03-30T04:31:56.554Z,1011.87
2019-03-30T04:32:56.464Z,1011.84
2019-03-30T04:33:56.408Z,1011.86
2019-03-30T04:34:56.355Z,1011.84
2019-03-30T04:35:56.320Z,1011.82
2019-03-30T04:36:56.236Z,1011.85
2019-03-30T04:37:56.188Z,1011.88
2019-03-30T04:38:56.134Z,1011.83
2019-03-30T04:39:56.075Z,1011.85
2019-03-30T04:40:56.042Z,1011.82
2019-03-30T04:41:55.965Z,1011.80
2019-03-30T04:42:55.908Z,1011.82
2019-03-30T04:43:55.853Z,1011.83
2019-03-30T04:44:55.804Z,1011.85
2019-03-30T04:45:55.774Z,1011.85
2019-03-30T04:46:55.686Z,1011.84
2019-03-30T04:47:55.635Z,1011.83
2019-03-30T04:48:55.575Z,1011.77
2019-03-30T04:49:55.524Z,1011.78
2019-03-30T04:50:55.504Z,1011.77
2019-03-30T04:51:57.720Z,1011.79
2019-03-30T04:52:55.358Z,1011.78
2019-03-30T04:53:55.310Z,1011.77
2019-03-30T04:54:55.254Z,1011.76
2019-03-30T04:55:55.194Z,1011.71
2019-03-30T04:56:55.166Z,1011.74
2019-03-30T04:57:57.770Z,1011.76
2019-03-30T04:58:55.034Z,1011.76
2019-03-30T04:59:54.970Z,1011.74
2019-03-30T05:00:54.919Z,1011.78
2019-03-30T05:01:54.882Z,1011.80
2019-03-30T05:02:54.812Z,1011.76
2019-03-30T05:03:54.748Z,1011.79
2019-03-30T05:04:54.716Z,1011.77
2019-03-30T05:05:54.649Z,1011.78
2019-03-30T05:06:54.606Z,1011.78
2019-03-30T05:07:54.533Z,1011.80
2019-03-30T05:08:54.483Z,1011.80
2019-03-30T05:09:54.428Z,1011.78
2019-03-30T05:10:54.368Z,1011.78
2019-03-30T05:11:54.335Z,1011.78
2019-03-30T05:12:54.259Z,1011.76
2019-03-30T05:13:54.198Z,1011.80
2019-03-30T05:14:54.147Z,1011.77
2019-03-30T05:15:54.092Z,1011.75
2019-03-30T05:16:54.060Z,1011.77
2019-03-30T05:17:53.980Z,1011.77
2019-03-30T05:18:53.927Z,1011.80
2019-03-30T05:19:53.872Z,1011.79
2019-03-30T05:20:53.810Z,1011.76
2019-03-30T05:21:53.783Z,1011.79
2019-03-30T05:22:53.705Z,1011.80
2019-03-30T05:23:53.650Z,1011.81
2019-03-30T05:24:53.594Z,1011.75
2019-03-30T05:25:53.542Z,1011.79
2019-03-30T05:26:53.510Z,1011.78
2019-03-30T05:27:53.431Z,1011.79
2019-03-30T05:28:53.376Z,1011.79
2019-03-30T05:29:53.324Z,1011.76
2019-03-30T05:30:53.266Z,1011.81
2019-03-30T05:31:53.228Z,1011.78
2019-03-30T05:33:04.888Z,1011.75
2019-03-30T05:33:53.099Z,1011.76
2019-03-30T05:34:53.043Z,1011.77
2019-03-30T05:35:52.991Z,1011.76
2019-03-30T05:36:52.958Z,1011.74
2019-03-30T05:37:52.881Z,1011.74
2019-03-30T05:38:52.818Z,1011.76
2019-03-30T05:39:52.766Z,1011.75
2019-03-30T05:40:52.723Z,1011.77
2019-03-30T05:41:52.681Z,1011.73
2019-03-30T05:42:52.608Z,1011.75
2019-03-30T05:43:52.549Z,1011.74
2019-03-30T05:44:52.492Z,1011.71
2019-03-30T05:45:52.438Z,1011.75
2019-03-30T05:46:52.406Z,1011.75
2019-03-30T05:47:52.327Z,1011.74
2019-03-30T05:48:52.272Z,1011.77
2019-03-30T05:49:52.220Z,1011.77
2019-03-30T05:50:52.165Z,1011.76
2019-03-30T05:51:52.133Z,1011.76
2019-03-30T05:52:52.064Z,1011.76
2019-03-30T05:53:52.002Z,1011.75
2019-03-30T05:54:51.947Z,1011.72
2019-03-30T05:55:51.891Z,1011.71
2019-03-30T05:56:51.860Z,1011.70
2019-03-30T05:57:51.778Z,1011.72
2019-03-30T05:58:51.719Z,1011.72
2019-03-30T05:59:51.668Z,1011.69
2019-03-30T06:00:51.607Z,1011.73
2019-03-30T06:01:51.585Z,1011.69
2019-03-30T06:02:51.504Z,1011.75
2019-03-30T06:03:51.453Z,1011.74
2019-03-30T06:04:51.393Z,1011.75
2019-03-30T06:05:51.347Z,1011.72
2019-03-30T06:06:51.309Z,1011.67
2019-03-30T06:07:51.324Z,1011.68
2019-03-30T06:08:51.177Z,1011.66
2019-03-30T06:09:51.127Z,1011.63
2019-03-30T06:10:51.071Z,1011.65
2019-03-30T06:11:51.058Z,1011.66
2019-03-30T06:12:50.966Z,1011.67
2019-03-30T06:13:50.902Z,1011.66
2019-03-30T06:14:50.853Z,1011.66
2019-03-30T06:15:50.789Z,1011.65
2019-03-30T06:16:50.738Z,1011.65
2019-03-30T06:17:50.705Z,1011.66
2019-03-30T06:18:50.632Z,1011.64
2019-03-30T06:19:50.574Z,1011.63
2019-03-30T06:20:50.516Z,1011.63
2019-03-30T06:21:50.468Z,1011.66
2019-03-30T06:22:50.443Z,1011.69
2019-03-30T06:23:50.357Z,1011.65
2019-03-30T06:24:50.297Z,1011.68
2019-03-30T06:25:50.254Z,1011.68
2019-03-30T06:26:50.194Z,1011.69
2019-03-30T06:27:50.170Z,1011.67
2019-03-30T06:28:50.088Z,1011.63
2019-03-30T06:29:50.033Z,1011.69
2019-03-30T06:30:49.986Z,1011.67
2019-03-30T06:31:49.923Z,1011.66
2019-03-30T06:32:49.902Z,1011.67
2019-03-30T06:33:49.823Z,1011.62
2019-03-30T06:34:49.774Z,1011.58
2019-03-30T06:35:49.713Z,1011.59
2019-03-30T06:36:49.661Z,1011.61
2019-03-30T06:37:49.640Z,1011.63
2019-03-30T06:38:49.559Z,1011.59
2019-03-30T06:39:49.503Z,1011.62
2019-03-30T06:40:49.448Z,1011.59
2019-03-30T06:41:49.397Z,1011.60
2019-03-30T06:42:49.366Z,1011.58
2019-03-30T06:43:49.288Z,1011.54
2019-03-30T06:44:49.241Z,1011.57
2019-03-30T06:45:49.182Z,1011.53
2019-03-30T06:46:49.132Z,1011.55
2019-03-30T06:47:49.105Z,1011.58
2019-03-30T06:48:49.038Z,1011.57
2019-03-30T06:49:48.976Z,1011.56
2019-03-30T06:50:48.923Z,1011.57
2019-03-30T06:51:48.874Z,1011.54
2019-03-30T06:52:57.640Z,1011.54
2019-03-30T06:53:48.766Z,1011.50
2019-03-30T06:54:48.713Z,1011.52
2019-03-30T06:55:48.660Z,1011.53
2019-03-30T06:56:48.608Z,1011.51
2019-03-30T06:57:48.581Z,1011.52
2019-03-30T06:58:48.513Z,1011.56
2019-03-30T06:59:48.457Z,1011.56
2019-03-30T07:00:48.409Z,1011.53
2019-03-30T07:01:48.360Z,1011.55
2019-03-30T07:02:48.324Z,1011.58
2019-03-30T07:03:48.249Z,1011.59
2019-03-30T07:04:48.208Z,1011.61
2019-03-30T07:05:48.146Z,1011.56
2019-03-30T07:06:48.091Z,1011.51
2019-03-30T07:07:48.067Z,1011.54
2019-03-30T07:08:48.002Z,1011.57
2019-03-30T07:09:47.945Z,1011.54
2019-03-30T07:10:47.898Z,1011.59
2019-03-30T07:11:47.879Z,1011.61
2019-03-30T07:12:47.819Z,1011.56
2019-03-30T07:13:47.743Z,1011.57
2019-03-30T07:14:47.689Z,1011.55
2019-03-30T07:15:47.644Z,1011.57
2019-03-30T07:16:47.592Z,1011.57
2019-03-30T07:17:47.571Z,1011.58
2019-03-30T07:18:47.496Z,1011.58
2019-03-30T07:19:47.439Z,1011.60
2019-03-30T07:20:47.389Z,1011.62
2019-03-30T07:21:47.354Z,1011.63
2019-03-30T07:22:47.308Z,1011.57
2019-03-30T07:23:47.232Z,1011.59
2019-03-30T07:24:47.184Z,1011.54
2019-03-30T07:25:47.130Z,1011.56
2019-03-30T07:26:47.080Z,1011.54
2019-03-30T07:27:47.065Z,1011.53
2019-03-30T07:28:47.395Z,1011.53
2019-03-30T07:29:46.935Z,1011.52
2019-03-30T07:30:46.882Z,1011.53
2019-03-30T07:31:46.840Z,1011.50
2019-03-30T07:32:46.820Z,1011.52
2019-03-30T07:33:46.732Z,1011.53
2019-03-30T07:34:46.680Z,1011.52
2019-03-30T07:35:46.630Z,1011.52
2019-03-30T07:36:46.582Z,1011.51
2019-03-30T07:37:46.530Z,1011.50
2019-03-30T07:38:46.502Z,1011.50
2019-03-30T07:39:46.424Z,1011.54
2019-03-30T07:40:46.376Z,1011.58
2019-03-30T07:41:46.334Z,1011.56
2019-03-30T07:42:46.277Z,1011.52
2019-03-30T07:43:46.254Z,1011.53
2019-03-30T07:44:46.178Z,1011.53
2019-03-30T07:45:46.157Z,1011.52
2019-03-30T07:46:46.075Z,1011.51
2019-03-30T07:47:46.024Z,1011.49
2019-03-30T07:48:46.001Z,1011.51
2019-03-30T07:49:45.929Z,1011.53
2019-03-30T07:50:45.875Z,1011.54
2019-03-30T07:51:45.834Z,1011.54
2019-03-30T07:52:45.770Z,1011.55
2019-03-30T07:53:45.752Z,1011.52
2019-03-30T07:54:45.676Z,1011.53
2019-03-30T07:55:45.629Z,1011.51
2019-03-30T07:56:45.577Z,1011.50
2019-03-30T07:57:45.521Z,1011.51
2019-03-30T07:58:45.502Z,1011.50
2019-03-30T07:59:45.430Z,1011.48
2019-03-30T08:00:45.380Z,1011.46
2019-03-30T08:01:45.330Z,1011.46
2019-03-30T08:02:45.337Z,1011.48
2019-03-30T08:03:45.246Z,1011.49
2019-03-30T08:04:45.236Z,1011.48
2019-03-30T08:05:45.127Z,1011.45
2019-03-30T08:06:45.083Z,1011.45
2019-03-30T08:07:45.016Z,1011.42
2019-03-30T08:08:45.005Z,1011.44
2019-03-30T08:09:44.930Z,1011.43
2019-03-30T08:10:44.880Z,1011.45
2019-03-30T08:11:44.823Z,1011.43
2019-03-30T08:12:44.784Z,1011.41
2019-03-30T08:13:44.756Z,1011.43
2019-03-30T08:14:45.203Z,1011.42
2019-03-30T08:15:44.629Z,1011.44
2019-03-30T08:16:44.582Z,1011.47
2019-03-30T08:17:44.532Z,1011.46
2019-03-30T08:18:44.511Z,1011.41
2019-03-30T08:19:44.430Z,1011.41
2019-03-30T08:20:44.378Z,1011.40
2019-03-30T08:21:44.330Z,1011.45
2019-03-30T08:22:44.278Z,1011.42
2019-03-30T08:23:44.258Z,1011.42
2019-03-30T08:24:44.175Z,1011.45
2019-03-30T08:25:44.136Z,1011.48
2019-03-30T08:26:44.168Z,1011.43
2019-03-30T08:27:44.030Z,1011.42
2019-03-30T08:28:44.010Z,1011.45
2019-03-30T08:29:43.929Z,1011.42
2019-03-30T08:30:43.879Z,1011.44
2019-03-30T08:31:43.829Z,1011.43
2019-03-30T08:32:43.787Z,1011.42
2019-03-30T08:33:43.758Z,1011.34
2019-03-30T08:34:43.683Z,1011.38
2019-03-30T08:35:43.633Z,1011.36
2019-03-30T08:36:43.587Z,1011.38
2019-03-30T08:37:43.644Z,1011.35
2019-03-30T08:38:43.518Z,1011.35
2019-03-30T08:39:43.438Z,1011.35
2019-03-30T08:40:43.385Z,1011.36
2019-03-30T08:41:43.337Z,1011.35
2019-03-30T08:42:43.288Z,1011.34
2019-03-30T08:43:43.293Z,1011.34
2019-03-30T08:44:43.190Z,1011.36
2019-03-30T08:45:43.135Z,1011.36
2019-03-30T08:46:43.118Z,1011.36
2019-03-30T08:47:43.037Z,1011.33
2019-03-30T08:48:43.019Z,1011.29
2019-03-30T08:49:42.939Z,1011.29
2019-03-30T08:50:42.896Z,1011.29
2019-03-30T08:51:42.843Z,1011.29
2019-03-30T08:52:42.789Z,1011.30
2019-03-30T08:53:53.947Z,1011.28
2019-03-30T08:54:42.693Z,1011.28
2019-03-30T08:55:42.657Z,1011.27
2019-03-30T08:56:42.591Z,1011.26
2019-03-30T08:57:42.543Z,1011.26
2019-03-30T08:58:42.518Z,1011.22
2019-03-30T08:59:42.445Z,1011.22
2019-03-30T09:00:42.395Z,1011.22
2019-03-30T09:01:42.342Z,1011.22
2019-03-30T09:02:42.294Z,1011.20
2019-03-30T09:03:42.341Z,1011.20
2019-03-30T09:04:42.189Z,1011.16
2019-03-30T09:05:42.155Z,1011.19
2019-03-30T09:06:42.100Z,1011.19
2019-03-30T09:07:42.050Z,1011.17
2019-03-30T09:08:42.018Z,1011.19
2019-03-30T09:09:41.951Z,1011.15
2019-03-30T09:10:41.896Z,1011.14
2019-03-30T09:11:43.469Z,1011.13
2019-03-30T09:12:41.810Z,1011.11
2019-03-30T09:13:41.783Z,1011.08
2019-03-30T09:14:41.709Z,1011.09
2019-03-30T09:15:41.653Z,1011.08
2019-03-30T09:16:41.611Z,1011.07
2019-03-30T09:17:41.545Z,1011.09
2019-03-30T09:18:41.534Z,1011.07
2019-03-30T09:19:41.466Z,1011.03
2019-03-30T09:20:41.410Z,1011.07
2019-03-30T09:21:41.358Z,1011.03
2019-03-30T09:22:41.313Z,1010.97
2019-03-30T09:23:41.291Z,1011.01
2019-03-30T09:24:41.221Z,1011.01
2019-03-30T09:25:41.165Z,1010.98
2019-03-30T09:26:41.113Z,1010.98
2019-03-30T09:27:41.089Z,1010.96
2019-03-30T09:28:41.043Z,1010.94
2019-03-30T09:29:40.977Z,1010.90
2019-03-30T09:30:40.921Z,1010.94
2019-03-30T09:31:40.877Z,1010.85
2019-03-30T09:32:40.817Z,1010.85
2019-03-30T09:33:40.803Z,1010.85
2019-03-30T09:34:40.727Z,1010.84
2019-03-30T09:35:40.672Z,1010.83
2019-03-30T09:36:40.683Z,1010.84
2019-03-30T09:37:40.582Z,1010.82
2019-03-30T09:38:40.532Z,1010.81
2019-03-30T09:39:40.504Z,1010.77
2019-03-30T09:40:40.445Z,1010.75
2019-03-30T09:41:40.393Z,1010.75
2019-03-30T09:42:40.328Z,1010.77
2019-03-30T09:43:40.289Z,1010.74
2019-03-30T09:44:40.279Z,1010.74
2019-03-30T09:45:40.189Z,1010.72
2019-03-30T09:46:40.143Z,1010.73
2019-03-30T09:47:40.098Z,1010.71
2019-03-30T09:48:40.046Z,1010.70
2019-03-30T09:49:40.033Z,1010.66
2019-03-30T09:50:39.944Z,1010.67
2019-03-30T09:51:39.901Z,1010.67
2019-03-30T09:52:39.846Z,1010.68
2019-03-30T09:53:39.802Z,1010.67
2019-03-30T09:54:39.789Z,1010.67
2019-03-30T09:55:39.708Z,1010.64
2019-03-30T09:56:39.656Z,1010.65
2019-03-30T09:57:39.613Z,1010.63
2019-03-30T09:58:39.594Z,1010.67
2019-03-30T09:59:39.535Z,1010.63
2019-03-30T10:00:39.462Z,1010.68
2019-03-30T10:01:39.415Z,1010.60
2019-03-30T10:02:39.374Z,1010.61
2019-03-30T10:03:39.317Z,1010.61
2019-03-30T10:04:39.292Z,1010.59
2019-03-30T10:05:39.234Z,1010.58
2019-03-30T10:06:39.174Z,1010.59
2019-03-30T10:07:39.126Z,1010.61
2019-03-30T10:08:39.076Z,1010.60
2019-03-30T10:09:39.057Z,1010.58
2019-03-30T10:10:38.988Z,1010.60
2019-03-30T10:11:38.934Z,1010.55
2019-03-30T10:12:38.880Z,1010.55
2019-03-30T10:13:38.836Z,1010.60
2019-03-30T10:14:38.808Z,1010.58
2019-03-30T10:15:38.742Z,1010.53
2019-03-30T10:16:38.695Z,1010.49
2019-03-30T10:17:38.647Z,1010.43
2019-03-30T10:18:38.597Z,1010.49
2019-03-30T10:19:38.570Z,1010.51
2019-03-30T10:20:38.498Z,1010.50
2019-03-30T10:21:38.455Z,1010.48
2019-03-30T10:22:41.814Z,1010.48
2019-03-30T10:23:38.365Z,1010.48
2019-03-30T10:24:45.469Z,1010.52
2019-03-30T10:25:38.259Z,1010.43
2019-03-30T10:26:38.225Z,1010.46
2019-03-30T10:27:38.162Z,1010.42
2019-03-30T10:28:38.115Z,1010.49
2019-03-30T10:29:38.092Z,1010.46
2019-03-30T10:30:38.020Z,1010.47
2019-03-30T10:31:37.969Z,1010.41
2019-03-30T10:32:37.915Z,1010.41
2019-03-30T10:33:37.869Z,1010.42
2019-03-30T10:34:39.601Z,1010.40
2019-03-30T10:35:37.773Z,1010.39
2019-03-30T10:36:37.726Z,1010.37
2019-03-30T10:37:37.677Z,1010.40
2019-03-30T10:38:37.634Z,1010.37
2019-03-30T10:39:37.601Z,1010.40
2019-03-30T10:40:37.532Z,1010.41
2019-03-30T10:41:37.484Z,1010.30
2019-03-30T10:42:37.431Z,1010.29
2019-03-30T10:43:37.388Z,1010.32
2019-03-30T10:44:37.371Z,1010.31
2019-03-30T10:45:37.293Z,1010.30
2019-03-30T10:46:37.241Z,1010.31
2019-03-30T10:47:37.195Z,1010.25
2019-03-30T10:48:37.147Z,1010.27
2019-03-30T10:49:37.126Z,1010.23
2019-03-30T10:50:37.050Z,1010.22
2019-03-30T10:51:37.001Z,1010.18
2019-03-30T10:52:36.956Z,1010.22
2019-03-30T10:53:36.911Z,1010.18
2019-03-30T10:54:36.883Z,1010.16
2019-03-30T10:55:36.812Z,1010.14
2019-03-30T10:56:36.766Z,1010.13
2019-03-30T10:57:36.716Z,1010.13
2019-03-30T10:58:36.667Z,1010.12
2019-03-30T10:59:36.650Z,1010.09
2019-03-30T11:00:36.571Z,1010.09
2019-03-30T11:01:36.523Z,1010.07
2019-03-30T11:02:36.475Z,1010.04
2019-03-30T11:03:36.428Z,1010.06
2019-03-30T11:04:37.673Z,1010.04
2019-03-30T11:05:36.327Z,1010.04
2019-03-30T11:06:36.281Z,1009.99
2019-03-30T11:07:36.235Z,1009.97
2019-03-30T11:08:36.183Z,1009.95
2019-03-30T11:09:36.174Z,1009.95
2019-03-30T11:10:36.097Z,1009.93
2019-03-30T11:11:36.046Z,1009.86
2019-03-30T11:12:35.989Z,1009.91
2019-03-30T11:13:35.947Z,1009.89
2019-03-30T11:14:35.927Z,1009.88
2019-03-30T11:15:35.848Z,1009.85
2019-03-30T11:16:35.809Z,1009.94
2019-03-30T11:17:35.759Z,1009.90
2019-03-30T11:18:35.713Z,1009.87
2019-03-30T11:19:35.679Z,1009.83
2019-03-30T11:20:35.610Z,1009.80
2019-03-30T11:21:35.568Z,1009.84
2019-03-30T11:22:35.516Z,1009.87
2019-03-30T11:23:35.468Z,1009.88
2019-03-30T11:24:35.494Z,1009.86
2019-03-30T11:25:35.373Z,1009.81
2019-03-30T11:26:35.334Z,1009.86
2019-03-30T11:27:35.278Z,1009.80
2019-03-30T11:28:35.233Z,1009.77
2019-03-30T11:29:35.204Z,1009.72
2019-03-30T11:30:35.168Z,1009.65
2019-03-30T11:31:35.081Z,1009.71
2019-03-30T11:32:35.037Z,1009.69
2019-03-30T11:33:34.994Z,1009.67
2019-03-30T11:34:34.970Z,1009.69
2019-03-30T11:35:34.897Z,1009.71
2019-03-30T11:36:34.848Z,1009.70
2019-03-30T11:37:34.803Z,1009.70
2019-03-30T11:38:34.753Z,1009.68
2019-03-30T11:39:34.730Z,1009.68
2019-03-30T11:40:34.658Z,1009.65
2019-03-30T11:41:34.615Z,1009.62
2019-03-30T11:42:34.655Z,1009.60
2019-03-30T11:43:34.516Z,1009.59
2019-03-30T11:44:34.497Z,1009.53
2019-03-30T11:45:34.421Z,1009.52
2019-03-30T11:46:34.366Z,1009.50
2019-03-30T11:47:34.323Z,1009.52
2019-03-30T11:48:37.321Z,1009.48
2019-03-30T11:49:34.248Z,1009.46
2019-03-30T11:50:34.188Z,1009.44
2019-03-30T11:51:34.130Z,1009.44
2019-03-30T11:52:34.094Z,1009.48
2019-03-30T11:53:34.041Z,1009.47
2019-03-30T11:54:34.015Z,1009.50
2019-03-30T11:55:33.946Z,1009.49
2019-03-30T11:56:33.902Z,1009.47
2019-03-30T11:57:33.861Z,1009.44
2019-03-30T11:58:33.802Z,1009.41
2019-03-30T11:59:33.777Z,1009.40
2019-03-30T12:00:33.707Z,1009.37
2019-03-30T12:01:33.662Z,1009.32
2019-03-30T12:02:33.615Z,1009.34
2019-03-30T12:03:33.564Z,1009.31
2019-03-30T12:04:33.541Z,1009.37